Time;durP1;ratioP1;P1;durP2;ratioP2;P2;SDS_P1;SDS_P2;PMS_P1;PMS_P2;Temp;Humidity;BMP_temperature;BMP_pressure;BME280_temperature;BME280_humidity;BME280_pressure;Samples;Min_cycle;Max_cycle;Signal;HPM_P1;HPM_P2
2023/07/22 00:01:42;;;;;;;1.60;1.50;;;22.60;54.20;;;;;;4967071;28;20217;-82
2023/07/22 00:04:09;;;;;;;1.88;1.60;;;22.60;54.20;;;;;;4951026;28;20217;-82
2023/07/22 00:06:36;;;;;;;1.52;1.42;;;22.60;54.20;;;;;;4965429;28;20201;-82
2023/07/22 00:09:03;;;;;;;2.00;1.80;;;22.60;54.20;;;;;;4978461;28;20201;-82
2023/07/22 00:11:31;;;;;;;1.83;1.70;;;22.60;54.20;;;;;;4980003;28;20225;-82
2023/07/22 00:13:58;;;;;;;1.70;1.60;;;22.60;54.30;;;;;;4980199;28;20668;-82
2023/07/22 00:16:29;;;;;;;1.80;1.70;;;22.50;54.10;;;;;;4981105;28;20228;-82
2023/07/22 00:18:56;;;;;;;1.52;1.42;;;22.60;54.30;;;;;;4965600;28;20204;-82
2023/07/22 00:21:23;;;;;;;1.85;1.73;;;22.50;54.30;;;;;;4979267;28;20229;-82
2023/07/22 00:23:51;;;;;;;1.65;1.55;;;22.60;54.30;;;;;;4978679;28;20197;-82
2023/07/22 00:26:18;;;;;;;1.92;1.80;;;22.50;54.20;;;;;;4963173;28;20201;-82
2023/07/22 00:28:45;;;;;;;1.45;1.35;;;22.50;54.20;;;;;;4978929;28;20198;-82
2023/07/22 00:31:12;;;;;;;1.80;1.70;;;22.50;54.20;;;;;;4978636;28;20221;-82
2023/07/22 00:33:40;;;;;;;1.65;1.55;;;22.50;54.30;;;;;;4978964;28;20201;-79
2023/07/22 00:36:08;;;;;;;1.80;1.70;;;22.40;54.20;;;;;;4981603;28;20632;-79
2023/07/22 00:38:35;;;;;;;1.88;1.77;;;22.50;54.30;;;;;;4981448;28;20220;-80
2023/07/22 00:41:04;;;;;;;1.65;1.55;;;22.50;54.30;;;;;;4965722;28;20209;-81
2023/07/22 00:43:31;;;;;;;1.50;1.40;;;22.50;54.30;;;;;;4948342;28;20204;-81
2023/07/22 00:45:59;;;;;;;1.70;1.60;;;22.50;54.30;;;;;;4981080;28;20202;-81
2023/07/22 00:48:27;;;;;;;1.90;1.80;;;22.40;54.20;;;;;;4981166;28;20197;-80
2023/07/22 00:50:56;;;;;;;1.85;1.50;;;22.40;54.10;;;;;;4980488;28;20263;-81
2023/07/22 00:53:23;;;;;;;1.60;1.50;;;22.40;54.10;;;;;;4980410;28;20231;-81
2023/07/22 00:55:50;;;;;;;1.83;1.73;;;22.40;54.10;;;;;;4980691;28;20236;-80
2023/07/22 00:58:17;;;;;;;1.95;1.75;;;22.40;54.10;;;;;;4981206;28;20213;-80
2023/07/22 01:00:45;;;;;;;1.85;1.75;;;22.50;54.80;;;;;;4980415;28;20213;-81
2023/07/22 01:03:12;;;;;;;1.70;1.60;;;22.40;54.10;;;;;;4978433;28;20567;-81
2023/07/22 01:05:41;;;;;;;1.50;1.40;;;22.50;54.10;;;;;;4978981;28;20542;-81
2023/07/22 01:08:10;;;;;;;1.65;1.55;;;22.50;54.10;;;;;;4982468;28;20201;-81
2023/07/22 01:10:37;;;;;;;1.75;1.65;;;22.40;54.10;;;;;;4983447;28;20582;-81
2023/07/22 01:13:04;;;;;;;2.78;1.50;;;22.40;54.00;;;;;;4984032;28;20205;-81
2023/07/22 01:15:32;;;;;;;1.50;1.40;;;22.40;54.10;;;;;;4983308;28;20205;-81
2023/07/22 01:18:01;;;;;;;1.70;1.60;;;22.40;54.00;;;;;;4984505;28;20208;-81
2023/07/22 01:20:28;;;;;;;1.92;1.73;;;22.40;54.00;;;;;;4984006;28;20217;-81
2023/07/22 01:22:56;;;;;;;1.58;1.48;;;22.50;54.10;;;;;;4984090;28;20216;-81
2023/07/22 01:25:24;;;;;;;1.70;1.60;;;22.40;54.00;;;;;;5001765;28;20193;-81
2023/07/22 01:27:52;;;;;;;2.03;1.60;;;22.40;54.00;;;;;;4968030;28;20247;-80
2023/07/22 01:30:20;;;;;;;1.50;1.40;;;22.40;54.00;;;;;;4984123;28;20244;-81
2023/07/22 01:32:47;;;;;;;1.50;1.40;;;22.40;54.00;;;;;;4983461;28;20198;-81
2023/07/22 01:35:14;;;;;;;1.65;1.55;;;22.40;54.00;;;;;;4984112;28;20209;-80
2023/07/22 01:37:42;;;;;;;1.83;1.58;;;22.40;53.90;;;;;;4983166;28;20201;-80
2023/07/22 01:40:12;;;;;;;1.67;1.58;;;22.40;53.90;;;;;;4983279;28;20304;-81
2023/07/22 01:42:39;;;;;;;2.00;1.85;;;22.40;54.00;;;;;;4967347;28;20198;-80
2023/07/22 01:45:08;;;;;;;1.58;1.48;;;22.40;53.90;;;;;;4982867;28;20228;-80
2023/07/22 01:47:35;;;;;;;1.90;1.63;;;22.40;54.00;;;;;;4982651;28;20202;-80
2023/07/22 01:50:03;;;;;;;2.08;1.88;;;22.40;53.90;;;;;;4981939;28;20239;-80
2023/07/22 01:52:30;;;;;;;1.63;1.52;;;22.40;54.00;;;;;;4982474;28;20221;-80
2023/07/22 01:54:57;;;;;;;1.50;1.40;;;22.40;53.90;;;;;;4980994;28;20205;-80
2023/07/22 01:57:26;;;;;;;1.83;1.67;;;22.40;54.00;;;;;;4981197;28;20256;-80
2023/07/22 01:59:53;;;;;;;1.80;1.70;;;22.40;54.00;;;;;;5071397;23;20240;-80
2023/07/22 02:02:20;;;;;;;1.80;1.70;;;22.30;53.90;;;;;;4996347;28;20284;-81
2023/07/22 02:04:47;;;;;;;1.67;1.58;;;22.40;54.00;;;;;;4979963;28;20201;-81
2023/07/22 02:07:15;;;;;;;1.88;1.73;;;22.30;53.90;;;;;;4996291;28;20692;-81
2023/07/22 02:09:42;;;;;;;1.85;1.75;;;22.30;53.90;;;;;;4999788;28;20207;-81
2023/07/22 02:12:10;;;;;;;1.50;1.40;;;22.30;53.90;;;;;;4999099;28;20656;-81
2023/07/22 02:14:38;;;;;;;1.70;1.60;;;22.30;53.90;;;;;;4999402;28;20272;-81
2023/07/22 02:17:08;;;;;;;1.80;1.70;;;22.30;54.00;;;;;;4997963;28;20213;-81
2023/07/22 02:19:36;;;;;;;1.80;1.70;;;22.30;53.90;;;;;;4996982;28;20192;-81
2023/07/22 02:22:04;;;;;;;1.75;1.65;;;22.30;54.00;;;;;;4997189;28;20217;-80
2023/07/22 02:24:32;;;;;;;1.98;1.67;;;22.30;54.00;;;;;;4997504;28;20205;-80
2023/07/22 02:26:59;;;;;;;1.77;1.67;;;22.30;54.00;;;;;;4997641;28;20212;-81
2023/07/22 02:29:26;;;;;;;1.80;1.70;;;22.30;54.10;;;;;;4997470;28;20290;-81
2023/07/22 02:34:31;;;;;;;1.70;1.60;;;22.20;54.00;;;;;;5018030;28;20270;-80
2023/07/22 02:36:58;;;;;;;1.73;1.60;;;22.20;54.00;;;;;;5001991;28;20201;-80
2023/07/22 02:39:26;;;;;;;1.90;1.80;;;22.20;54.00;;;;;;5001764;28;20207;-80
2023/07/22 02:41:53;;;;;;;1.60;1.50;;;22.20;53.90;;;;;;5019078;28;20754;-80
2023/07/22 02:44:21;;;;;;;1.85;1.63;;;22.20;54.00;;;;;;5001269;28;20196;-80
2023/07/22 02:46:48;;;;;;;1.70;1.60;;;22.20;54.60;;;;;;4985353;28;20197;-80
2023/07/22 02:49:16;;;;;;;1.60;1.50;;;22.20;54.10;;;;;;5001880;28;20581;-80
2023/07/22 02:51:44;;;;;;;1.60;1.50;;;22.20;54.00;;;;;;5001574;28;20221;-80
2023/07/22 02:54:11;;;;;;;1.80;1.70;;;22.10;54.00;;;;;;5015635;28;20193;-80
2023/07/22 02:56:39;;;;;;;1.80;1.70;;;22.10;54.00;;;;;;4997984;28;20727;-80
2023/07/22 02:59:06;;;;;;;1.90;1.80;;;22.20;54.10;;;;;;5003467;28;20204;-80
2023/07/22 03:01:33;;;;;;;1.40;1.30;;;22.10;54.00;;;;;;4998328;28;20221;-80
2023/07/22 03:04:01;;;;;;;1.70;1.60;;;22.10;54.00;;;;;;4997842;28;20254;-80
2023/07/22 03:06:28;;;;;;;1.60;1.50;;;22.10;54.00;;;;;;4981624;28;20255;-80
2023/07/22 03:08:58;;;;;;;1.92;1.80;;;22.10;54.00;;;;;;4997684;28;20212;-80
2023/07/22 03:11:26;;;;;;;2.00;1.80;;;22.10;53.80;;;;;;4997235;28;20239;-80
2023/07/22 03:13:54;;;;;;;1.98;1.88;;;22.10;53.60;;;;;;4997490;28;20659;-80
2023/07/22 03:16:21;;;;;;;2.60;1.70;;;22.20;53.60;;;;;;4997587;28;20207;-80
2023/07/22 03:18:49;;;;;;;1.67;1.58;;;22.20;53.50;;;;;;4997127;28;20686;-80
2023/07/22 03:21:16;;;;;;;1.80;1.70;;;22.20;53.60;;;;;;4997344;28;20600;-80
2023/07/22 03:23:43;;;;;;;3.05;1.70;;;22.20;53.40;;;;;;4997228;28;20256;-80
2023/07/22 03:26:11;;;;;;;1.50;1.40;;;22.30;53.40;;;;;;4997246;28;20197;-80
2023/07/22 03:28:39;;;;;;;2.00;1.80;;;22.30;53.10;;;;;;4997528;28;20597;-80
2023/07/22 03:31:08;;;;;;;1.77;1.67;;;22.40;53.00;;;;;;4996194;28;20224;-80
2023/07/22 03:33:35;;;;;;;1.95;1.60;;;22.40;52.70;;;;;;4997191;28;20215;-79
2023/07/22 03:36:02;;;;;;;2.13;1.70;;;22.50;52.50;;;;;;4981494;28;20200;-80
2023/07/22 03:38:30;;;;;;;1.98;1.70;;;22.60;52.60;;;;;;4997074;28;20258;-80
2023/07/22 03:40:57;;;;;;;2.10;1.52;;;22.60;52.40;;;;;;4997041;28;20226;-80
2023/07/22 03:43:27;;;;;;;1.80;1.70;;;22.60;52.30;;;;;;5000665;28;20193;-80
2023/07/22 03:45:53;;;;;;;2.00;1.80;;;22.60;52.30;;;;;;5000145;28;20208;-80
2023/07/22 03:48:21;;;;;;;1.58;1.48;;;22.70;52.20;;;;;;4998890;28;20231;-80
2023/07/22 03:50:48;;;;;;;1.75;1.65;;;22.70;52.10;;;;;;4999057;28;20286;-80
2023/07/22 03:53:16;;;;;;;1.60;1.50;;;22.70;52.00;;;;;;4999223;28;20646;-80
2023/07/22 03:55:43;;;;;;;1.88;1.77;;;22.70;52.00;;;;;;4998024;28;20218;-80
2023/07/22 03:58:10;;;;;;;2.13;1.70;;;22.70;51.90;;;;;;4996712;28;20258;-80
2023/07/22 04:00:40;;;;;;;1.85;1.58;;;22.70;51.80;;;;;;4980627;28;20212;-80
2023/07/22 04:03:07;;;;;;;1.90;1.70;;;22.70;51.90;;;;;;4996709;28;20262;-80
2023/07/22 04:05:34;;;;;;;1.73;1.60;;;22.80;51.80;;;;;;4996998;28;20200;-80
2023/07/22 04:08:02;;;;;;;1.70;1.60;;;22.80;51.80;;;;;;4996835;28;20212;-80
2023/07/22 04:10:29;;;;;;;2.08;1.88;;;22.80;51.80;;;;;;4996711;28;20225;-80
2023/07/22 04:12:56;;;;;;;1.90;1.80;;;22.80;51.80;;;;;;4996561;28;20208;-80
2023/07/22 04:15:23;;;;;;;2.22;1.63;;;22.80;51.80;;;;;;4996712;28;20204;-80
2023/07/22 04:17:51;;;;;;;1.92;1.70;;;22.70;51.70;;;;;;4997005;28;20204;-80
2023/07/22 04:20:19;;;;;;;2.13;1.77;;;22.70;51.80;;;;;;4996658;28;20231;-80
2023/07/22 04:22:46;;;;;;;1.77;1.67;;;22.70;51.80;;;;;;4980682;28;20571;-80
2023/07/22 04:25:14;;;;;;;1.92;1.70;;;22.70;51.70;;;;;;4997437;28;20598;-79
2023/07/22 04:27:41;;;;;;;1.60;1.50;;;22.70;51.70;;;;;;4996515;28;20204;-79
2023/07/22 04:30:09;;;;;;;1.73;1.63;;;22.70;51.70;;;;;;4996364;28;20224;-78
2023/07/22 04:32:36;;;;;;;1.67;1.48;;;22.70;51.80;;;;;;4996538;28;20220;-79
2023/07/22 04:35:06;;;;;;;1.85;1.75;;;22.70;51.70;;;;;;4996556;28;20220;-79
2023/07/22 04:37:33;;;;;;;2.10;1.85;;;22.70;51.70;;;;;;4996712;28;20228;-78
2023/07/22 04:40:00;;;;;;;1.92;1.73;;;22.70;51.00;;;;;;4980386;28;20197;-78
2023/07/22 04:42:28;;;;;;;2.00;1.80;;;22.70;50.50;;;;;;4998218;28;20247;-78
2023/07/22 04:44:55;;;;;;;2.25;2.05;;;22.70;50.70;;;;;;5000515;28;20223;-78
2023/07/22 04:47:22;;;;;;;2.75;1.85;;;22.70;50.90;;;;;;5000379;28;20201;-78
2023/07/22 04:49:50;;;;;;;2.33;1.77;;;22.70;51.10;;;;;;5000675;28;20570;-78
2023/07/22 04:52:18;;;;;;;2.17;1.98;;;22.60;51.00;;;;;;5005490;28;20561;-78
2023/07/22 04:54:47;;;;;;;1.98;1.70;;;22.70;50.10;;;;;;5000769;28;20204;-78
2023/07/22 04:57:14;;;;;;;3.58;1.85;;;22.70;49.60;;;;;;5000504;28;20197;-78
2023/07/22 04:59:40;;;;;;;2.45;1.90;;;22.80;49.30;;;;;;5000542;28;20223;-78
2023/07/22 05:02:07;;;;;;;3.28;2.40;;;22.80;49.00;;;;;;5000395;28;20207;-78
2023/07/22 05:04:35;;;;;;;4.30;2.33;;;23.00;49.20;;;;;;4999939;28;20197;-78
2023/07/22 05:07:02;;;;;;;2.58;2.33;;;23.10;49.00;;;;;;4999823;28;20196;-79
2023/07/22 05:09:30;;;;;;;3.05;2.22;;;23.10;48.90;;;;;;4999690;28;20292;-79
2023/07/22 05:11:58;;;;;;;2.65;2.10;;;23.20;48.80;;;;;;5000940;28;20231;-79
2023/07/22 05:14:26;;;;;;;2.33;1.90;;;23.20;49.40;;;;;;4999360;28;20753;-79
2023/07/22 05:16:53;;;;;;;2.47;2.28;;;23.30;48.80;;;;;;4983804;28;20224;-79
2023/07/22 05:19:20;;;;;;;2.40;2.20;;;23.40;48.70;;;;;;5000016;28;20282;-79
2023/07/22 05:21:47;;;;;;;3.13;2.40;;;23.40;48.50;;;;;;5000017;28;20245;-79
2023/07/22 05:24:15;;;;;;;2.63;2.20;;;23.40;48.50;;;;;;4999612;28;20201;-79
2023/07/22 05:26:43;;;;;;;2.22;2.03;;;23.50;48.60;;;;;;4999545;28;20207;-80
2023/07/22 05:29:10;;;;;;;3.63;2.20;;;23.60;48.70;;;;;;4999885;28;20204;-78
2023/07/22 05:31:38;;;;;;;2.58;2.10;;;23.70;48.70;;;;;;5000843;28;20231;-78
2023/07/22 05:34:05;;;;;;;2.30;2.10;;;23.70;48.70;;;;;;4999617;28;20299;-78
2023/07/22 05:36:32;;;;;;;2.08;1.98;;;23.80;48.60;;;;;;4999505;28;20607;-78
2023/07/22 05:38:59;;;;;;;2.72;2.00;;;23.90;48.30;;;;;;5000837;28;20217;-80
2023/07/22 05:41:27;;;;;;;2.42;2.20;;;24.00;48.10;;;;;;4999981;28;20216;-79
2023/07/22 05:43:55;;;;;;;2.60;2.20;;;24.00;47.90;;;;;;5017072;28;20220;-78
2023/07/22 05:46:22;;;;;;;2.38;2.17;;;24.10;47.70;;;;;;4999029;28;20652;-78
2023/07/22 05:48:50;;;;;;;2.40;2.00;;;24.20;47.70;;;;;;4999322;28;20201;-79
2023/07/22 05:51:17;;;;;;;3.42;2.20;;;24.20;47.40;;;;;;5014660;23;20271;-78
2023/07/22 05:53:43;;;;;;;2.20;2.00;;;24.30;47.40;;;;;;4994909;28;20202;-78
2023/07/22 05:56:10;;;;;;;2.97;2.03;;;24.40;47.20;;;;;;4979672;28;20248;-78
2023/07/22 05:58:37;;;;;;;2.20;2.00;;;24.50;47.20;;;;;;4995505;28;20237;-78
2023/07/22 06:01:05;;;;;;;3.13;2.03;;;24.50;47.20;;;;;;4995763;28;20209;-78
2023/07/22 06:03:33;;;;;;;3.15;2.08;;;24.60;47.20;;;;;;5035029;23;20264;-79
2023/07/22 06:06:00;;;;;;;3.10;2.35;;;24.60;47.10;;;;;;4995581;28;20667;-79
2023/07/22 06:08:27;;;;;;;2.75;2.30;;;24.70;47.00;;;;;;4995428;28;20202;-79
2023/07/22 06:10:54;;;;;;;2.45;2.25;;;24.80;46.80;;;;;;4980438;28;20213;-79
2023/07/22 06:13:21;;;;;;;2.00;1.73;;;24.80;46.60;;;;;;4995601;28;20201;-79
2023/07/22 06:15:48;;;;;;;2.15;1.85;;;24.90;46.40;;;;;;4995565;28;20205;-79
2023/07/22 06:18:16;;;;;;;2.20;2.00;;;25.00;46.30;;;;;;4996113;28;20256;-79
2023/07/22 06:20:43;;;;;;;2.75;2.03;;;25.10;46.20;;;;;;4997610;28;20221;-79
2023/07/22 06:23:10;;;;;;;2.15;1.95;;;25.20;46.00;;;;;;5002624;28;20198;-78
2023/07/22 06:25:37;;;;;;;2.15;1.83;;;25.20;45.90;;;;;;4999102;28;20209;-78
2023/07/22 06:28:05;;;;;;;2.17;1.90;;;25.30;45.80;;;;;;4996464;28;20660;-78
2023/07/22 06:30:33;;;;;;;2.58;2.10;;;25.40;45.70;;;;;;4995938;28;20221;-78
2023/07/22 06:33:00;;;;;;;2.10;1.80;;;25.40;45.50;;;;;;4995400;28;20217;-78
2023/07/22 06:35:29;;;;;;;1.80;1.70;;;25.60;45.50;;;;;;4995808;28;20201;-78
2023/07/22 06:37:55;;;;;;;2.38;2.00;;;25.60;45.30;;;;;;4995767;28;20193;-78
2023/07/22 06:40:22;;;;;;;2.67;2.03;;;25.60;45.10;;;;;;4994948;28;20225;-78
2023/07/22 06:42:50;;;;;;;3.47;2.42;;;25.70;45.00;;;;;;4995055;28;20196;-78
2023/07/22 06:45:17;;;;;;;3.22;2.10;;;25.80;44.80;;;;;;4995043;28;20201;-78
2023/07/22 06:47:45;;;;;;;2.25;2.00;;;25.90;44.60;;;;;;4995057;28;20275;-78
2023/07/22 06:50:11;;;;;;;2.30;2.10;;;26.00;44.60;;;;;;4994865;28;20317;-78
2023/07/22 06:52:40;;;;;;;3.08;2.30;;;26.00;44.40;;;;;;4996085;28;20213;-78
2023/07/22 06:55:07;;;;;;;2.38;2.10;;;26.10;44.40;;;;;;4995147;28;20305;-78
2023/07/22 06:57:34;;;;;;;2.42;2.10;;;26.20;44.20;;;;;;4995304;28;20622;-78
2023/07/22 07:00:02;;;;;;;3.92;2.00;;;26.20;44.00;;;;;;4995263;28;20211;-78
2023/07/22 07:02:28;;;;;;;3.70;2.08;;;26.30;43.90;;;;;;4995024;28;20208;-79
2023/07/22 07:04:56;;;;;;;2.30;2.10;;;26.40;43.80;;;;;;4994851;28;20648;-79
2023/07/22 07:07:23;;;;;;;2.88;2.20;;;26.40;43.70;;;;;;4995504;28;20205;-79
2023/07/22 07:09:52;;;;;;;2.40;2.05;;;26.50;43.60;;;;;;4997270;28;20257;-79
2023/07/22 07:12:19;;;;;;;3.97;2.30;;;26.50;43.60;;;;;;4997387;28;20375;-79
2023/07/22 07:14:46;;;;;;;3.28;2.05;;;26.60;43.40;;;;;;4995226;28;20280;-79
2023/07/22 07:17:13;;;;;;;2.70;2.30;;;26.60;43.20;;;;;;4995072;28;20201;-79
2023/07/22 07:19:40;;;;;;;3.67;2.33;;;26.60;43.10;;;;;;4994650;28;20208;-79
2023/07/22 07:22:07;;;;;;;3.33;2.45;;;26.70;43.10;;;;;;4994560;28;20299;-79
2023/07/22 07:24:34;;;;;;;2.50;2.17;;;26.70;42.90;;;;;;4994620;28;20600;-79
2023/07/22 07:27:03;;;;;;;3.28;2.45;;;26.80;42.80;;;;;;4994473;28;20201;-79
2023/07/22 07:29:30;;;;;;;2.72;2.20;;;26.80;42.60;;;;;;4994179;28;20226;-79
2023/07/22 07:31:57;;;;;;;4.18;2.47;;;26.90;42.60;;;;;;4994354;28;20316;-79
2023/07/22 07:34:25;;;;;;;3.13;2.25;;;27.00;42.60;;;;;;4994094;28;20203;-79
2023/07/22 07:36:52;;;;;;;2.92;2.08;;;27.00;42.50;;;;;;4994315;28;20672;-79
2023/07/22 07:39:19;;;;;;;5.22;2.10;;;27.10;42.40;;;;;;4994495;28;20219;-79
2023/07/22 07:41:46;;;;;;;4.70;2.50;;;27.10;42.40;;;;;;4993841;28;20213;-79
2023/07/22 07:44:14;;;;;;;3.05;1.98;;;27.20;42.20;;;;;;4993704;28;20656;-79
2023/07/22 07:46:41;;;;;;;2.35;2.15;;;27.20;42.20;;;;;;4993801;28;20679;-79
2023/07/22 07:49:08;;;;;;;2.92;2.25;;;27.20;42.20;;;;;;4993806;28;20660;-79
2023/07/22 07:51:36;;;;;;;3.45;2.42;;;27.30;43.00;;;;;;4977524;28;20256;-79
2023/07/22 07:54:04;;;;;;;3.63;2.15;;;27.30;42.30;;;;;;4994175;28;20231;-79
2023/07/22 07:56:30;;;;;;;2.53;2.00;;;27.40;42.20;;;;;;4993906;28;20201;-79
2023/07/22 07:58:58;;;;;;;2.65;2.17;;;27.40;42.40;;;;;;4994247;28;20208;-79
2023/07/22 08:01:26;;;;;;;2.85;2.20;;;27.50;42.20;;;;;;4994971;28;20212;-79
2023/07/22 08:03:54;;;;;;;2.70;2.17;;;27.50;42.20;;;;;;4993833;28;20204;-79
2023/07/22 08:06:21;;;;;;;2.17;1.98;;;27.50;42.20;;;;;;4993918;28;20221;-80
2023/07/22 08:08:48;;;;;;;2.15;1.98;;;27.60;42.20;;;;;;4994260;28;20208;-80
2023/07/22 08:11:15;;;;;;;2.30;1.90;;;27.60;42.20;;;;;;4993841;28;20217;-80
2023/07/22 08:13:42;;;;;;;3.00;2.45;;;27.70;42.10;;;;;;4993751;28;20320;-80
2023/07/22 08:16:10;;;;;;;2.10;1.90;;;27.70;42.00;;;;;;4995491;28;20244;-80
2023/07/22 08:18:38;;;;;;;2.17;1.98;;;27.70;41.90;;;;;;5000154;28;20204;-80
2023/07/22 08:21:07;;;;;;;2.70;2.28;;;27.70;41.90;;;;;;5000247;28;20694;-80
2023/07/22 08:23:34;;;;;;;2.20;2.10;;;27.70;41.90;;;;;;5000599;28;20280;-80
2023/07/22 08:26:01;;;;;;;2.95;2.13;;;27.70;41.90;;;;;;4999679;28;20662;-80
2023/07/22 08:28:28;;;;;;;2.28;2.08;;;27.70;41.90;;;;;;4999839;28;20219;-80
2023/07/22 08:30:56;;;;;;;3.85;2.22;;;27.60;42.00;;;;;;5000003;28;20223;-80
2023/07/22 08:33:23;;;;;;;2.75;1.80;;;27.60;41.80;;;;;;4999699;28;20220;-80
2023/07/22 08:35:51;;;;;;;2.35;1.95;;;27.70;41.70;;;;;;4999818;28;20206;-79
2023/07/22 08:38:19;;;;;;;2.08;1.77;;;27.60;41.40;;;;;;5001419;28;20189;-79
2023/07/22 08:40:49;;;;;;;2.08;1.70;;;27.60;41.00;;;;;;4999945;28;20679;-79
2023/07/22 08:43:16;;;;;;;2.10;1.90;;;27.70;41.00;;;;;;4999747;28;20197;-79
2023/07/22 08:45:43;;;;;;;2.85;1.83;;;27.80;40.70;;;;;;5000372;28;20209;-79
2023/07/22 08:48:11;;;;;;;4.00;1.73;;;27.80;40.30;;;;;;5000743;28;20204;-79
2023/07/22 08:50:42;;;;;;;1.90;1.55;;;27.90;40.10;;;;;;5000551;28;20216;-79
2023/07/22 08:53:11;;;;;;;2.40;2.20;;;27.90;39.90;;;;;;5000240;28;20357;-79
2023/07/22 08:55:39;;;;;;;3.03;1.75;;;27.90;39.70;;;;;;5000281;28;20208;-78
2023/07/22 08:58:09;;;;;;;2.83;1.90;;;28.00;39.70;;;;;;5000358;28;20201;-79
2023/07/22 09:00:36;;;;;;;1.95;1.80;;;28.10;39.80;;;;;;5000844;28;20311;-79
2023/07/22 09:03:04;;;;;;;1.80;1.67;;;28.10;39.70;;;;;;5000187;28;20673;-79
2023/07/22 09:05:32;;;;;;;2.42;1.90;;;28.20;39.50;;;;;;5000669;28;20255;-79
2023/07/22 09:07:59;;;;;;;1.83;1.67;;;28.20;39.20;;;;;;5000414;28;20208;-79
2023/07/22 09:10:28;;;;;;;2.17;1.65;;;28.30;39.50;;;;;;5001099;28;20220;-79
2023/07/22 09:12:55;;;;;;;1.73;1.58;;;28.30;39.50;;;;;;4999276;28;20504;-79
2023/07/22 09:15:23;;;;;;;1.70;1.60;;;28.30;39.60;;;;;;4999236;28;20660;-79
2023/07/22 09:17:50;;;;;;;2.83;2.22;;;28.30;39.50;;;;;;5000064;28;20628;-79
2023/07/22 09:20:17;;;;;;;2.03;1.83;;;28.20;39.20;;;;;;4999511;28;20224;-79
2023/07/22 09:22:44;;;;;;;2.10;1.90;;;28.10;39.40;;;;;;4999640;28;20193;-79
2023/07/22 09:25:15;;;;;;;2.17;1.60;;;27.90;39.90;;;;;;4999893;28;20219;-79
2023/07/22 09:27:44;;;;;;;1.90;1.75;;;27.80;39.80;;;;;;4999404;28;20207;-79
2023/07/22 09:30:22;;;;;;;1.80;1.70;;;27.70;39.90;;;;;;4998040;28;20574;-79
2023/07/22 09:32:49;;;;;;;1.73;1.63;;;27.50;40.00;;;;;;4997039;28;20228;-79
2023/07/22 09:35:17;;;;;;;1.58;1.48;;;27.40;40.20;;;;;;4996919;28;20196;-79
2023/07/22 09:37:45;;;;;;;1.77;1.60;;;27.30;40.30;;;;;;4996962;28;20201;-79
2023/07/22 09:40:19;;;;;;;1.98;1.88;;;27.20;40.30;;;;;;4996852;28;20267;-79
2023/07/22 09:42:48;;;;;;;1.80;1.70;;;27.20;40.50;;;;;;4993435;28;20196;-79
2023/07/22 09:45:16;;;;;;;1.70;1.60;;;27.10;40.90;;;;;;4996984;28;20199;-79
2023/07/22 09:47:43;;;;;;;2.30;1.65;;;27.10;40.90;;;;;;4996967;28;20201;-79
2023/07/22 09:50:15;;;;;;;2.00;1.80;;;27.10;40.90;;;;;;4996803;28;20213;-79
2023/07/22 09:52:48;;;;;;;1.80;1.42;;;27.10;41.00;;;;;;5004579;28;20216;-79
2023/07/22 09:55:16;;;;;;;1.75;1.65;;;27.20;40.80;;;;;;4996446;28;20303;-79
2023/07/22 09:57:45;;;;;;;1.98;1.88;;;27.30;40.70;;;;;;4996257;28;20228;-79
2023/07/22 10:00:15;;;;;;;1.60;1.50;;;27.40;40.80;;;;;;4996168;28;20224;-79
2023/07/22 10:02:43;;;;;;;1.80;1.70;;;27.40;40.80;;;;;;4997221;28;20684;-79
2023/07/22 10:05:13;;;;;;;2.10;1.60;;;27.30;40.70;;;;;;4995823;28;20204;-79
2023/07/22 10:07:40;;;;;;;2.22;1.60;;;27.40;40.90;;;;;;4999304;28;20224;-79
2023/07/22 10:10:08;;;;;;;1.88;1.77;;;27.30;41.00;;;;;;5000759;28;20216;-79
2023/07/22 10:12:35;;;;;;;1.55;1.45;;;27.40;41.10;;;;;;4984153;28;20224;-79
2023/07/22 10:15:03;;;;;;;1.85;1.70;;;27.40;41.00;;;;;;5000713;28;20201;-79
2023/07/22 10:17:31;;;;;;;1.80;1.52;;;27.30;40.90;;;;;;5002755;28;20197;-79
2023/07/22 10:19:58;;;;;;;1.75;1.65;;;27.30;40.50;;;;;;5001189;28;20311;-79
2023/07/22 10:22:25;;;;;;;1.80;1.70;;;27.30;40.80;;;;;;4997780;28;20204;-79
2023/07/22 10:24:53;;;;;;;2.05;1.85;;;27.30;40.60;;;;;;4997931;28;20291;-79
2023/07/22 10:27:20;;;;;;;1.65;1.55;;;27.30;40.80;;;;;;4999428;28;20314;-79
2023/07/22 10:29:47;;;;;;;1.75;1.65;;;27.30;41.20;;;;;;4998661;28;20193;-79
2023/07/22 10:32:15;;;;;;;2.05;1.60;;;27.20;41.30;;;;;;4998135;28;20197;-79
2023/07/22 10:34:44;;;;;;;2.88;1.85;;;27.20;41.20;;;;;;4981856;28;20220;-79
2023/07/22 10:37:11;;;;;;;1.65;1.55;;;27.20;41.40;;;;;;4996825;28;20300;-79
2023/07/22 10:39:38;;;;;;;2.17;1.70;;;27.20;41.40;;;;;;4996012;28;20235;-79
2023/07/22 10:42:06;;;;;;;1.85;1.75;;;27.20;41.20;;;;;;4994959;28;20227;-79
2023/07/22 10:44:33;;;;;;;1.90;1.80;;;27.20;40.70;;;;;;4995099;28;20655;-79
2023/07/22 10:47:01;;;;;;;1.92;1.70;;;27.20;40.90;;;;;;4994826;28;20216;-79
2023/07/22 10:49:29;;;;;;;1.63;1.52;;;27.20;40.90;;;;;;4995133;28;20197;-79
2023/07/22 10:51:58;;;;;;;1.83;1.52;;;27.20;41.00;;;;;;4995025;28;20221;-79
2023/07/22 10:54:35;;;;;;;1.80;1.55;;;27.20;41.10;;;;;;4994944;28;20315;-79
2023/07/22 10:57:23;;;;;;;1.42;1.33;;;27.20;40.70;;;;;;4994816;28;20201;-79
2023/07/22 10:59:50;;;;;;;1.83;1.60;;;27.10;40.80;;;;;;4994836;28;20197;-79
2023/07/22 11:02:24;;;;;;;1.58;1.42;;;27.10;40.60;;;;;;4994597;28;20212;-79
2023/07/22 11:04:51;;;;;;;1.70;1.60;;;27.10;40.70;;;;;;4994669;28;20547;-79
2023/07/22 11:07:32;;;;;;;1.60;1.50;;;27.10;40.90;;;;;;4994497;28;20266;-79
2023/07/22 11:09:59;;;;;;;1.52;1.42;;;27.10;40.90;;;;;;4994292;28;20195;-79
2023/07/22 11:12:26;;;;;;;1.80;1.70;;;27.00;40.70;;;;;;4994536;28;20197;-79
2023/07/22 11:14:54;;;;;;;1.70;1.60;;;27.00;41.50;;;;;;4994676;28;20200;-79
2023/07/22 11:17:29;;;;;;;1.40;1.30;;;27.00;41.30;;;;;;4994417;28;20201;-79
2023/07/22 11:19:56;;;;;;;1.52;1.42;;;26.90;41.40;;;;;;4995246;28;20206;-79
2023/07/22 11:22:23;;;;;;;2.70;1.90;;;26.90;41.80;;;;;;4994560;28;20247;-79
2023/07/22 11:24:52;;;;;;;1.65;1.55;;;26.90;41.60;;;;;;4994987;28;20655;-79
2023/07/22 11:27:19;;;;;;;1.60;1.50;;;26.90;41.80;;;;;;4995143;28;20623;-79
2023/07/22 11:29:47;;;;;;;1.83;1.50;;;26.80;41.70;;;;;;4994949;28;20570;-79
2023/07/22 11:32:17;;;;;;;1.85;1.60;;;26.80;41.80;;;;;;4995822;28;20644;-79
2023/07/22 11:34:45;;;;;;;2.42;1.60;;;26.80;41.40;;;;;;4997474;28;20244;-79
2023/07/22 11:37:13;;;;;;;1.65;1.40;;;26.90;41.10;;;;;;4996532;28;20678;-79
2023/07/22 11:39:41;;;;;;;1.95;1.70;;;26.90;40.70;;;;;;4994606;28;20197;-79
2023/07/22 11:42:10;;;;;;;2.72;1.58;;;26.90;40.50;;;;;;4994649;28;20207;-79
2023/07/22 11:44:38;;;;;;;2.08;1.90;;;26.90;40.30;;;;;;4994575;28;20208;-79
2023/07/22 11:47:07;;;;;;;2.30;1.73;;;26.90;39.60;;;;;;4978894;28;20670;-79
2023/07/22 11:49:35;;;;;;;1.98;1.75;;;26.90;39.40;;;;;;4995139;28;20200;-79
2023/07/22 11:52:03;;;;;;;2.05;1.80;;;26.90;39.00;;;;;;4993513;28;20225;-79
2023/07/22 11:54:30;;;;;;;2.60;1.92;;;26.90;38.80;;;;;;4978216;28;20212;-79
2023/07/22 11:59:38;;;;;;;1.95;1.75;;;27.00;40.00;;;;;;4977688;28;20500;-80
2023/07/22 12:02:05;;;;;;;2.75;1.90;;;27.00;40.00;;;;;;4961545;28;20240;-81
2023/07/22 12:04:34;;;;;;;2.10;1.80;;;27.00;39.90;;;;;;4962324;28;20217;-81
2023/07/22 12:07:01;;;;;;;2.55;2.03;;;27.00;40.20;;;;;;4961028;28;20197;-81
2023/07/22 12:09:31;;;;;;;2.08;1.88;;;27.00;40.40;;;;;;4961134;28;20289;-80
2023/07/22 12:11:59;;;;;;;2.22;2.03;;;27.00;39.00;;;;;;4961395;28;20228;-80
2023/07/22 12:14:26;;;;;;;1.90;1.80;;;26.90;39.00;;;;;;4961755;28;20228;-80
2023/07/22 12:16:57;;;;;;;3.00;2.00;;;26.90;38.40;;;;;;4962625;28;20217;-80
2023/07/22 12:19:24;;;;;;;2.33;1.98;;;26.90;37.00;;;;;;4962323;28;20197;-81
2023/07/22 12:21:51;;;;;;;2.03;1.83;;;26.80;36.80;;;;;;4960189;28;20630;-81
2023/07/22 12:24:18;;;;;;;2.03;1.70;;;26.90;37.90;;;;;;4961205;28;20203;-81
2023/07/22 12:26:46;;;;;;;2.10;1.90;;;26.90;37.80;;;;;;4961790;28;20248;-81
2023/07/22 12:29:12;;;;;;;2.05;1.85;;;26.90;38.30;;;;;;4946590;28;20202;-80
2023/07/22 12:31:40;;;;;;;1.77;1.67;;;26.90;38.70;;;;;;4961596;28;20252;-81
2023/07/22 12:34:08;;;;;;;2.03;1.80;;;26.90;38.80;;;;;;4961482;28;20272;-81
2023/07/22 12:36:36;;;;;;;1.88;1.77;;;27.00;39.10;;;;;;4961240;28;20615;-81
2023/07/22 12:39:04;;;;;;;2.80;1.70;;;26.90;39.60;;;;;;4960083;28;20202;-81
2023/07/22 12:41:31;;;;;;;2.08;1.98;;;26.90;39.20;;;;;;4959924;28;20218;-81
2023/07/22 12:43:58;;;;;;;2.08;1.88;;;26.90;39.50;;;;;;4959467;28;20205;-80
2023/07/22 12:46:26;;;;;;;2.55;1.80;;;26.80;39.40;;;;;;4961103;28;20206;-80
2023/07/22 12:48:53;;;;;;;1.90;1.77;;;26.80;39.40;;;;;;4960722;28;20212;-80
2023/07/22 12:51:22;;;;;;;1.70;1.60;;;26.70;39.20;;;;;;4959621;28;20218;-80
2023/07/22 12:53:48;;;;;;;2.80;2.00;;;26.70;38.00;;;;;;4959582;28;20224;-81
2023/07/22 12:56:18;;;;;;;2.00;1.80;;;26.60;38.70;;;;;;4960627;28;20645;-81